Time;durP1;ratioP1;P1;durP2;ratioP2;P2;SDS_P1;SDS_P2;PMS_P1;PMS_P2;Temp;Humidity;BMP_temperature;BMP_pressure;BME280_temperature;BME280_humidity;BME280_pressure;Samples;Min_cycle;Max_cycle;Signal;HPM_P1;HPM_P2
2023/10/31 00:00:38;;;;;;;11.60;5.47;;;;;;;;;;5061986;28;20279;-36
2023/10/31 00:03:03;;;;;;;16.03;6.57;;;;;;;;;;5058910;28;20028;-36
2023/10/31 00:05:29;;;;;;;10.87;5.70;;;;;;;;;;5054623;28;20047;-37
2023/10/31 00:07:54;;;;;;;14.85;4.93;;;;;;;;;;5066941;28;20267;-36
2023/10/31 00:10:19;;;;;;;9.32;5.30;;;;;;;;;;5059923;28;20897;-36
2023/10/31 00:12:44;;;;;;;10.33;4.43;;;;;;;;;;5064620;28;20123;-36
2023/10/31 00:15:10;;;;;;;10.33;4.63;;;;;;;;;;5064655;28;20270;-36
2023/10/31 00:17:35;;;;;;;8.70;4.30;;;;;;;;;;5064947;28;20771;-36
2023/10/31 00:20:00;;;;;;;5.97;2.83;;;;;;;;;;5063260;28;20123;-36
2023/10/31 00:22:26;;;;;;;10.53;5.30;;;;;;;;;;5064091;28;20274;-36
2023/10/31 00:24:51;;;;;;;8.10;4.90;;;;;;;;;;5055393;28;20279;-36
2023/10/31 00:27:16;;;;;;;9.53;4.97;;;;;;;;;;5061363;28;20276;-36
2023/10/31 00:29:41;;;;;;;13.43;4.90;;;;;;;;;;5062154;28;20695;-36
2023/10/31 00:32:07;;;;;;;18.27;5.80;;;;;;;;;;5061747;28;20028;-36
2023/10/31 00:34:32;;;;;;;8.97;5.03;;;;;;;;;;5065603;28;20263;-36
2023/10/31 00:36:57;;;;;;;11.73;5.40;;;;;;;;;;5057913;28;20711;-36
2023/10/31 00:39:22;;;;;;;15.57;5.83;;;;;;;;;;5062343;28;20270;-36
2023/10/31 00:41:48;;;;;;;10.80;5.40;;;;;;;;;;5064365;28;20662;-36
2023/10/31 00:44:13;;;;;;;9.87;5.00;;;;;;;;;;5059668;28;20058;-36
2023/10/31 00:46:38;;;;;;;10.68;5.18;;;;;;;;;;5054862;28;20275;-36
2023/10/31 00:49:04;;;;;;;10.13;5.35;;;;;;;;;;5061052;28;20025;-35
2023/10/31 00:51:29;;;;;;;15.00;6.43;;;;;;;;;;5059641;28;20036;-36
2023/10/31 00:53:54;;;;;;;11.23;5.27;;;;;;;;;;5056804;28;20299;-36
2023/10/31 00:56:19;;;;;;;8.85;5.20;;;;;;;;;;5018478;28;20290;-36
2023/10/31 00:58:45;;;;;;;10.70;5.90;;;;;;;;;;5039971;28;20017;-36
2023/10/31 01:01:10;;;;;;;10.57;4.85;;;;;;;;;;5050272;28;20025;-36
2023/10/31 01:03:36;;;;;;;13.70;6.23;;;;;;;;;;5047285;28;20105;-36
2023/10/31 01:06:01;;;;;;;11.07;5.70;;;;;;;;;;5057673;28;20272;-36
2023/10/31 01:08:26;;;;;;;11.55;5.25;;;;;;;;;;5059000;28;20630;-36
2023/10/31 01:10:51;;;;;;;14.37;5.67;;;;;;;;;;5060573;28;20032;-36
2023/10/31 01:13:17;;;;;;;13.00;5.82;;;;;;;;;;5057822;28;20752;-36
2023/10/31 01:15:42;;;;;;;12.40;5.95;;;;;;;;;;5063399;28;20025;-36
2023/10/31 01:18:07;;;;;;;13.80;7.28;;;;;;;;;;5059681;28;20031;-36
2023/10/31 01:20:33;;;;;;;12.70;7.13;;;;;;;;;;5053375;28;20028;-36
2023/10/31 01:22:58;;;;;;;16.27;7.83;;;;;;;;;;5057051;28;20305;-36
2023/10/31 01:25:23;;;;;;;10.60;6.27;;;;;;;;;;5047363;28;20275;-36
2023/10/31 01:27:48;;;;;;;14.98;6.20;;;;;;;;;;5055959;28;20762;-36
2023/10/31 01:30:14;;;;;;;11.40;5.88;;;;;;;;;;5055258;28;20024;-36
2023/10/31 01:32:39;;;;;;;12.40;5.78;;;;;;;;;;5037521;28;20056;-36
2023/10/31 01:35:04;;;;;;;13.68;6.45;;;;;;;;;;5052398;28;20475;-36
2023/10/31 01:37:30;;;;;;;11.35;6.20;;;;;;;;;;5063101;28;20024;-36
2023/10/31 01:39:55;;;;;;;13.63;6.32;;;;;;;;;;5061480;28;20055;-36
2023/10/31 01:42:20;;;;;;;12.40;6.17;;;;;;;;;;5067878;28;20062;-36
2023/10/31 01:44:46;;;;;;;13.15;5.93;;;;;;;;;;5060068;28;20274;-36
2023/10/31 01:47:11;;;;;;;18.33;6.13;;;;;;;;;;5052486;28;20036;-36
2023/10/31 01:49:36;;;;;;;13.07;5.67;;;;;;;;;;5052805;28;20024;-36
2023/10/31 01:52:05;;;;;;;13.23;5.57;;;;;;;;;;5052928;28;20060;-36
2023/10/31 01:54:32;;;;;;;14.55;6.68;;;;;;;;;;5052946;28;20079;-36
2023/10/31 01:56:59;;;;;;;12.98;6.68;;;;;;;;;;5066101;28;20482;-36
2023/10/31 01:59:25;;;;;;;9.77;5.32;;;;;;;;;;5061083;28;20108;-37
2023/10/31 02:01:51;;;;;;;17.13;6.63;;;;;;;;;;5049444;28;20024;-36
2023/10/31 02:04:16;;;;;;;14.95;6.78;;;;;;;;;;5065010;28;20077;-36
2023/10/31 02:06:41;;;;;;;12.63;6.03;;;;;;;;;;5045503;28;20036;-36
2023/10/31 02:09:07;;;;;;;12.03;6.20;;;;;;;;;;5061268;28;20816;-36
2023/10/31 02:11:32;;;;;;;11.83;6.30;;;;;;;;;;5060804;28;20277;-36
2023/10/31 02:13:57;;;;;;;13.10;6.85;;;;;;;;;;5065716;28;20275;-36
2023/10/31 02:16:22;;;;;;;12.67;7.70;;;;;;;;;;5065026;28;20516;-36
2023/10/31 02:18:48;;;;;;;14.10;7.13;;;;;;;;;;5059672;28;20346;-36
2023/10/31 02:21:13;;;;;;;13.63;6.15;;;;;;;;;;5064748;28;20033;-36
2023/10/31 02:23:38;;;;;;;19.33;7.83;;;;;;;;;;5065907;28;20523;-36
2023/10/31 02:26:04;;;;;;;14.95;6.95;;;;;;;;;;5069072;28;20282;-36
2023/10/31 02:28:30;;;;;;;15.50;6.10;;;;;;;;;;5065421;28;20028;-37
2023/10/31 02:30:55;;;;;;;15.35;6.70;;;;;;;;;;5066045;28;20331;-36
2023/10/31 02:33:20;;;;;;;13.45;7.07;;;;;;;;;;5067546;28;20039;-37
2023/10/31 02:35:46;;;;;;;13.65;7.20;;;;;;;;;;5065610;28;20043;-37
2023/10/31 02:38:11;;;;;;;11.07;6.13;;;;;;;;;;5049260;28;20070;-37
2023/10/31 02:40:36;;;;;;;16.33;7.33;;;;;;;;;;5059979;28;20282;-37
2023/10/31 02:43:02;;;;;;;15.80;6.70;;;;;;;;;;5073048;28;20298;-37
2023/10/31 02:45:27;;;;;;;15.68;7.63;;;;;;;;;;5064021;28;20286;-37
2023/10/31 02:47:53;;;;;;;11.57;6.40;;;;;;;;;;5070842;28;20024;-37
2023/10/31 02:50:18;;;;;;;13.82;6.82;;;;;;;;;;5066148;28;20286;-37
2023/10/31 02:52:43;;;;;;;14.37;7.33;;;;;;;;;;5071022;28;20499;-37
2023/10/31 02:55:08;;;;;;;11.32;6.63;;;;;;;;;;5064204;28;20272;-36
2023/10/31 02:57:34;;;;;;;24.48;8.23;;;;;;;;;;5064508;28;20040;-37
2023/10/31 02:59:59;;;;;;;14.52;6.72;;;;;;;;;;5062069;28;20495;-37
2023/10/31 03:02:24;;;;;;;16.60;7.30;;;;;;;;;;5054099;28;20108;-37
2023/10/31 03:04:50;;;;;;;14.43;7.95;;;;;;;;;;5041827;28;20346;-37
2023/10/31 03:07:15;;;;;;;18.63;7.68;;;;;;;;;;5048594;28;20683;-37
2023/10/31 03:09:40;;;;;;;11.10;6.30;;;;;;;;;;5064658;28;20032;-37
2023/10/31 03:12:06;;;;;;;16.07;8.10;;;;;;;;;;5061852;28;20830;-37
2023/10/31 03:14:31;;;;;;;14.57;6.82;;;;;;;;;;5055827;28;20278;-37
2023/10/31 03:16:56;;;;;;;11.48;6.55;;;;;;;;;;5053379;28;20090;-37
2023/10/31 03:19:22;;;;;;;13.40;6.93;;;;;;;;;;5050727;28;20033;-36
2023/10/31 03:21:47;;;;;;;17.27;7.10;;;;;;;;;;5063049;28;20737;-37
2023/10/31 03:24:12;;;;;;;14.13;7.77;;;;;;;;;;5059861;28;20267;-37
2023/10/31 03:26:37;;;;;;;15.63;7.20;;;;;;;;;;5054784;28;20833;-37
2023/10/31 03:29:03;;;;;;;12.07;7.13;;;;;;;;;;5061671;28;20289;-37
2023/10/31 03:31:28;;;;;;;17.30;6.95;;;;;;;;;;5060411;28;20282;-37
2023/10/31 03:33:54;;;;;;;19.83;7.50;;;;;;;;;;5067773;28;20711;-36
2023/10/31 03:36:19;;;;;;;15.38;8.70;;;;;;;;;;5064423;28;20390;-37
2023/10/31 03:38:45;;;;;;;18.42;8.68;;;;;;;;;;5068764;28;20150;-36
2023/10/31 03:41:10;;;;;;;14.23;7.77;;;;;;;;;;5069676;28;20044;-36
2023/10/31 03:43:35;;;;;;;13.63;6.67;;;;;;;;;;5062103;28;20274;-37
2023/10/31 03:46:00;;;;;;;12.87;7.57;;;;;;;;;;5071106;28;20324;-37
2023/10/31 03:48:26;;;;;;;14.03;7.37;;;;;;;;;;5078144;28;20275;-37
2023/10/31 03:50:51;;;;;;;19.80;7.03;;;;;;;;;;5071210;28;20266;-37
2023/10/31 03:53:17;;;;;;;14.00;7.13;;;;;;;;;;5071131;28;20035;-37
2023/10/31 03:55:42;;;;;;;24.20;8.87;;;;;;;;;;5074263;28;20020;-37
2023/10/31 03:58:07;;;;;;;13.70;8.32;;;;;;;;;;5064084;28;20807;-37
2023/10/31 04:00:32;;;;;;;15.55;8.95;;;;;;;;;;5064765;28;20114;-37
2023/10/31 04:02:58;;;;;;;15.10;7.50;;;;;;;;;;5052984;28;20025;-37
2023/10/31 04:05:23;;;;;;;14.90;8.13;;;;;;;;;;5070594;28;20263;-37
2023/10/31 04:07:49;;;;;;;16.10;8.30;;;;;;;;;;5075660;28;20267;-37
2023/10/31 04:10:14;;;;;;;14.73;7.68;;;;;;;;;;5070806;28;20354;-38
2023/10/31 04:12:41;;;;;;;13.57;7.30;;;;;;;;;;5069933;28;20026;-36
2023/10/31 04:15:07;;;;;;;16.92;8.77;;;;;;;;;;5067064;28;20020;-37
2023/10/31 04:17:32;;;;;;;16.85;8.65;;;;;;;;;;5064687;28;20017;-37
2023/10/31 04:19:57;;;;;;;17.08;8.60;;;;;;;;;;5069515;28;20036;-37
2023/10/31 04:22:22;;;;;;;14.40;7.80;;;;;;;;;;5063504;28;20021;-37
2023/10/31 04:24:48;;;;;;;15.00;8.03;;;;;;;;;;5069416;28;20024;-37
2023/10/31 04:27:13;;;;;;;20.83;8.90;;;;;;;;;;5070689;28;20336;-37
2023/10/31 04:29:38;;;;;;;19.47;8.80;;;;;;;;;;5065018;28;20294;-37
2023/10/31 04:32:04;;;;;;;14.77;7.37;;;;;;;;;;5059650;28;20717;-37
2023/10/31 04:34:29;;;;;;;15.57;8.75;;;;;;;;;;5065274;28;20105;-37
2023/10/31 04:36:54;;;;;;;17.87;9.80;;;;;;;;;;5068769;28;20016;-38
2023/10/31 04:39:19;;;;;;;14.50;8.17;;;;;;;;;;5065420;28;20790;-37
2023/10/31 04:41:45;;;;;;;16.13;8.95;;;;;;;;;;5069071;28;20287;-37
2023/10/31 04:44:10;;;;;;;16.67;8.32;;;;;;;;;;5070903;28;20016;-37
2023/10/31 04:46:35;;;;;;;20.77;9.50;;;;;;;;;;5070237;28;20461;-37
2023/10/31 04:49:00;;;;;;;16.08;8.10;;;;;;;;;;5068411;28;20278;-37
2023/10/31 04:51:26;;;;;;;15.87;8.80;;;;;;;;;;5056776;28;20115;-37
2023/10/31 04:53:51;;;;;;;18.95;9.43;;;;;;;;;;5069337;28;20279;-37
2023/10/31 04:56:17;;;;;;;20.92;9.95;;;;;;;;;;5068221;28;20103;-37
2023/10/31 04:58:42;;;;;;;16.52;8.43;;;;;;;;;;5061721;28;20096;-37
2023/10/31 05:01:11;;;;;;;17.00;9.27;;;;;;;;;;5062870;28;20036;-36
2023/10/31 05:03:37;;;;;;;19.00;10.20;;;;;;;;;;5062084;28;20023;-37
2023/10/31 05:06:03;;;;;;;18.95;9.35;;;;;;;;;;5064202;28;20020;-37
2023/10/31 05:08:28;;;;;;;16.33;9.38;;;;;;;;;;5073765;28;20518;-37
2023/10/31 05:10:54;;;;;;;18.45;9.50;;;;;;;;;;5052323;28;20036;-37
2023/10/31 05:13:19;;;;;;;22.10;10.05;;;;;;;;;;5065135;28;20025;-37
2023/10/31 05:15:45;;;;;;;15.10;8.87;;;;;;;;;;5063547;28;20074;-37
2023/10/31 05:18:10;;;;;;;16.60;8.50;;;;;;;;;;5069991;28;20273;-37
2023/10/31 05:20:35;;;;;;;11.90;8.07;;;;;;;;;;5060734;28;20052;-38
2023/10/31 05:23:01;;;;;;;16.87;10.10;;;;;;;;;;5062581;28;20268;-37
2023/10/31 05:25:26;;;;;;;16.90;8.60;;;;;;;;;;5062879;28;20812;-37
2023/10/31 05:27:52;;;;;;;15.67;9.33;;;;;;;;;;5053303;28;20147;-37
2023/10/31 05:30:17;;;;;;;14.80;8.98;;;;;;;;;;5054588;28;20287;-37
2023/10/31 05:32:44;;;;;;;16.83;8.98;;;;;;;;;;5062099;28;20028;-37
2023/10/31 05:35:09;;;;;;;15.57;9.60;;;;;;;;;;5054226;28;20078;-37
2023/10/31 05:37:35;;;;;;;16.70;8.52;;;;;;;;;;5074218;28;20024;-37
2023/10/31 05:40:01;;;;;;;14.03;8.73;;;;;;;;;;5062852;28;20028;-37
2023/10/31 05:42:27;;;;;;;12.40;8.40;;;;;;;;;;5070091;28;20350;-37
2023/10/31 05:44:52;;;;;;;15.00;8.90;;;;;;;;;;5072660;28;20016;-37
2023/10/31 05:47:18;;;;;;;13.70;8.95;;;;;;;;;;5068901;28;20103;-39
2023/10/31 05:49:44;;;;;;;20.20;8.93;;;;;;;;;;5063896;28;20034;-37
2023/10/31 05:52:09;;;;;;;17.45;9.18;;;;;;;;;;5069480;28;20111;-37
2023/10/31 05:54:34;;;;;;;14.40;9.03;;;;;;;;;;5059714;28;20028;-37
2023/10/31 05:56:59;;;;;;;16.97;9.00;;;;;;;;;;5063913;28;20366;-37
2023/10/31 05:59:25;;;;;;;13.50;8.90;;;;;;;;;;5058817;28;20329;-37
2023/10/31 06:01:50;;;;;;;14.95;8.50;;;;;;;;;;5062199;28;20776;-37
2023/10/31 06:04:15;;;;;;;14.90;9.25;;;;;;;;;;5065300;28;20055;-37
2023/10/31 06:06:41;;;;;;;18.88;8.90;;;;;;;;;;5057509;28;20020;-37
2023/10/31 06:09:06;;;;;;;15.33;8.90;;;;;;;;;;5057044;28;21077;-37
2023/10/31 06:11:31;;;;;;;18.90;9.60;;;;;;;;;;5065869;28;20316;-37
2023/10/31 06:13:59;;;;;;;5.73;2.80;;;;;;;;;;5066200;28;20114;-37
2023/10/31 06:16:24;;;;;;;19.30;9.50;;;;;;;;;;5061214;28;20283;-37
2023/10/31 06:18:49;;;;;;;18.27;9.45;;;;;;;;;;5029904;28;20554;-37
2023/10/31 06:21:14;;;;;;;17.63;9.33;;;;;;;;;;5057183;28;20497;-37
2023/10/31 06:23:40;;;;;;;17.77;8.73;;;;;;;;;;5064750;28;20259;-37
2023/10/31 06:26:05;;;;;;;19.48;8.98;;;;;;;;;;5064990;28;20445;-37
2023/10/31 06:28:34;;;;;;;19.02;9.50;;;;;;;;;;5061912;28;20068;-37
2023/10/31 06:30:59;;;;;;;21.85;9.50;;;;;;;;;;5064130;28;20040;-37
2023/10/31 06:33:24;;;;;;;20.70;9.73;;;;;;;;;;5071025;28;20055;-37
2023/10/31 06:35:51;;;;;;;21.00;10.17;;;;;;;;;;5062832;28;20032;-37
2023/10/31 06:38:17;;;;;;;18.85;10.43;;;;;;;;;;5049658;28;20277;-37
2023/10/31 06:40:42;;;;;;;22.25;10.73;;;;;;;;;;5063593;28;20024;-37
2023/10/31 06:43:08;;;;;;;21.77;10.73;;;;;;;;;;5061854;28;20437;-37
2023/10/31 06:45:33;;;;;;;24.00;11.10;;;;;;;;;;5063738;28;20549;-37
2023/10/31 06:47:58;;;;;;;17.27;10.43;;;;;;;;;;5067048;28;20381;-37
2023/10/31 06:50:24;;;;;;;21.97;10.67;;;;;;;;;;5063404;28;20290;-37
2023/10/31 06:52:49;;;;;;;19.27;10.80;;;;;;;;;;5070142;28;21065;-37
2023/10/31 06:55:15;;;;;;;18.52;11.23;;;;;;;;;;5072411;28;20106;-37
2023/10/31 06:57:40;;;;;;;24.70;10.63;;;;;;;;;;5066205;28;20111;-37
2023/10/31 07:00:08;;;;;;;19.13;10.30;;;;;;;;;;5061823;28;20016;-36
2023/10/31 07:02:34;;;;;;;16.63;9.90;;;;;;;;;;5063525;28;20286;-38
2023/10/31 07:05:00;;;;;;;17.45;10.93;;;;;;;;;;5059041;28;20021;-37
2023/10/31 07:07:25;;;;;;;22.70;10.87;;;;;;;;;;5058236;28;20046;-37
2023/10/31 07:09:50;;;;;;;24.87;11.00;;;;;;;;;;5066217;28;20271;-37
2023/10/31 07:12:16;;;;;;;27.47;14.10;;;;;;;;;;5068398;28;20266;-37
2023/10/31 07:14:41;;;;;;;20.95;12.85;;;;;;;;;;5060590;28;20274;-37
2023/10/31 07:17:06;;;;;;;23.52;11.23;;;;;;;;;;5070668;28;20027;-37
2023/10/31 07:19:31;;;;;;;22.07;12.10;;;;;;;;;;5062754;28;20024;-37
2023/10/31 07:21:56;;;;;;;19.90;12.63;;;;;;;;;;5071909;28;20541;-37
2023/10/31 07:24:22;;;;;;;19.17;11.30;;;;;;;;;;5060688;28;20349;-37
2023/10/31 07:26:47;;;;;;;25.77;11.43;;;;;;;;;;5053099;28;20278;-37
2023/10/31 07:29:12;;;;;;;20.13;11.70;;;;;;;;;;5063834;28;20741;-37
2023/10/31 07:31:38;;;;;;;21.83;12.63;;;;;;;;;;5068128;28;20317;-37
2023/10/31 07:34:04;;;;;;;21.65;11.93;;;;;;;;;;5070305;28;20317;-37
2023/10/31 07:36:32;;;;;;;26.58;11.55;;;;;;;;;;5066324;28;20024;-38
2023/10/31 07:38:57;;;;;;;25.85;11.82;;;;;;;;;;5070030;28;20016;-37
2023/10/31 07:41:22;;;;;;;24.90;12.77;;;;;;;;;;5063430;28;20029;-37
2023/10/31 07:43:48;;;;;;;23.67;12.10;;;;;;;;;;5068885;28;20367;-37
2023/10/31 07:46:13;;;;;;;20.05;10.30;;;;;;;;;;5069151;28;20029;-37
2023/10/31 07:48:38;;;;;;;25.00;10.18;;;;;;;;;;5069185;28;20029;-37
2023/10/31 07:51:04;;;;;;;17.33;10.10;;;;;;;;;;5066742;28;20055;-37
2023/10/31 07:53:30;;;;;;;22.95;10.00;;;;;;;;;;5064370;28;20119;-37
2023/10/31 07:55:55;;;;;;;21.83;10.52;;;;;;;;;;5065524;28;20028;-37
2023/10/31 07:58:20;;;;;;;19.90;10.00;;;;;;;;;;5068839;28;20032;-37
2023/10/31 08:00:46;;;;;;;21.92;9.70;;;;;;;;;;5061574;28;20298;-37
2023/10/31 08:03:12;;;;;;;20.77;9.27;;;;;;;;;;5071915;28;20021;-37
2023/10/31 08:05:37;;;;;;;20.20;9.07;;;;;;;;;;5068454;28;20105;-37
2023/10/31 08:08:02;;;;;;;30.37;10.30;;;;;;;;;;5069263;28;20266;-37
2023/10/31 08:10:27;;;;;;;26.42;9.70;;;;;;;;;;5068720;28;20734;-37
2023/10/31 08:12:53;;;;;;;18.58;8.85;;;;;;;;;;5067755;28;20035;-37
2023/10/31 08:15:18;;;;;;;16.00;8.23;;;;;;;;;;5058083;28;20035;-37
2023/10/31 08:17:43;;;;;;;15.05;7.82;;;;;;;;;;5064959;28;20279;-37
2023/10/31 08:20:09;;;;;;;17.55;8.15;;;;;;;;;;5065776;28;20040;-39
2023/10/31 08:22:35;;;;;;;15.25;8.40;;;;;;;;;;5065208;28;20027;-37
2023/10/31 08:25:01;;;;;;;13.95;7.75;;;;;;;;;;5071080;28;20020;-37
2023/10/31 08:27:26;;;;;;;14.32;6.93;;;;;;;;;;5067243;28;20070;-37
2023/10/31 08:29:52;;;;;;;15.33;6.60;;;;;;;;;;5064244;28;20052;-37
2023/10/31 08:32:17;;;;;;;11.48;6.03;;;;;;;;;;5057044;28;20968;-37
2023/10/31 08:34:42;;;;;;;9.77;6.28;;;;;;;;;;5061613;28;20108;-37
2023/10/31 08:37:08;;;;;;;17.27;6.80;;;;;;;;;;5060733;28;20024;-37
2023/10/31 08:39:33;;;;;;;9.63;5.50;;;;;;;;;;5061639;28;20067;-37
2023/10/31 08:41:59;;;;;;;7.03;4.63;;;;;;;;;;5070243;28;20142;-37
2023/10/31 08:44:24;;;;;;;10.10;4.07;;;;;;;;;;5066059;28;20274;-37
2023/10/31 08:46:49;;;;;;;7.75;4.10;;;;;;;;;;5063629;28;20055;-37
2023/10/31 08:49:16;;;;;;;6.78;4.05;;;;;;;;;;5063177;28;20040;-37
2023/10/31 08:51:42;;;;;;;8.95;4.07;;;;;;;;;;5069850;28;20044;-37
2023/10/31 08:54:08;;;;;;;6.25;3.67;;;;;;;;;;5061162;28;20028;-39
2023/10/31 08:56:34;;;;;;;5.00;3.38;;;;;;;;;;5066474;28;20021;-37
2023/10/31 08:58:59;;;;;;;6.30;3.87;;;;;;;;;;5062338;28;20039;-36
2023/10/31 09:01:24;;;;;;;6.57;3.57;;;;;;;;;;5057888;28;20270;-37
2023/10/31 09:03:50;;;;;;;6.13;3.50;;;;;;;;;;5067718;28;20784;-36
2023/10/31 09:06:15;;;;;;;4.20;2.90;;;;;;;;;;5059393;28;20099;-36
2023/10/31 09:08:40;;;;;;;7.90;3.88;;;;;;;;;;5062958;28;20033;-36
2023/10/31 09:11:06;;;;;;;3.10;1.92;;;;;;;;;;5067764;28;20112;-36
2023/10/31 09:13:31;;;;;;;3.65;1.80;;;;;;;;;;5056129;28;20021;-36
2023/10/31 09:16:00;;;;;;;6.40;1.90;;;;;;;;;;5062480;28;20024;-36
2023/10/31 09:18:25;;;;;;;3.03;1.58;;;;;;;;;;5056865;28;20035;-36
2023/10/31 09:20:51;;;;;;;3.35;1.70;;;;;;;;;;5065564;28;20020;-36
2023/10/31 09:23:17;;;;;;;2.95;1.48;;;;;;;;;;5063883;28;20028;-36
2023/10/31 09:25:42;;;;;;;2.97;1.67;;;;;;;;;;5067858;28;20021;-36
2023/10/31 09:28:08;;;;;;;3.15;2.03;;;;;;;;;;5064394;28;20112;-36
2023/10/31 09:30:33;;;;;;;3.33;2.10;;;;;;;;;;5064872;28;20060;-36
2023/10/31 09:32:58;;;;;;;5.63;2.83;;;;;;;;;;5058021;28;20788;-36
2023/10/31 09:35:24;;;;;;;2.92;1.65;;;;;;;;;;5070730;28;20346;-36
2023/10/31 09:37:50;;;;;;;4.50;2.30;;;;;;;;;;5061524;28;20733;-36
2023/10/31 09:40:16;;;;;;;3.72;2.28;;;;;;;;;;5055194;28;20048;-37
2023/10/31 09:42:42;;;;;;;2.97;1.95;;;;;;;;;;5061106;28;20028;-36
2023/10/31 09:45:08;;;;;;;2.83;2.17;;;;;;;;;;5058027;28;20016;-36
2023/10/31 09:47:33;;;;;;;3.85;2.58;;;;;;;;;;5061158;28;20379;-38
2023/10/31 09:49:59;;;;;;;3.30;2.22;;;;;;;;;;5065855;28;20020;-37
2023/10/31 09:52:25;;;;;;;3.30;2.20;;;;;;;;;;5065383;28;20071;-37
2023/10/31 09:54:51;;;;;;;3.55;2.33;;;;;;;;;;5055703;28;20051;-37
2023/10/31 09:57:17;;;;;;;5.68;2.00;;;;;;;;;;5054677;28;20055;-36
2023/10/31 09:59:42;;;;;;;3.78;2.35;;;;;;;;;;5054669;28;20083;-37
2023/10/31 10:02:07;;;;;;;3.00;1.83;;;;;;;;;;5059166;28;20436;-37
2023/10/31 10:04:33;;;;;;;4.23;1.50;;;;;;;;;;5061819;28;20267;-37
2023/10/31 10:06:59;;;;;;;2.13;1.58;;;;;;;;;;5049267;28;20319;-37
2023/10/31 10:09:24;;;;;;;2.63;1.60;;;;;;;;;;5073899;28;20024;-36
2023/10/31 10:11:51;;;;;;;4.53;1.40;;;;;;;;;;5075295;28;20032;-37
2023/10/31 10:14:16;;;;;;;2.08;1.30;;;;;;;;;;5073500;28;20107;-37
2023/10/31 10:16:42;;;;;;;2.37;1.30;;;;;;;;;;5068854;28;20028;-37
2023/10/31 10:19:23;;;;;;;4.53;2.40;;;;;;;;;;5055985;28;20310;-38
2023/10/31 10:21:51;;;;;;;1.63;1.23;;;;;;;;;;5057130;28;20749;-38
2023/10/31 10:24:17;;;;;;;6.75;1.00;;;;;;;;;;5071578;28;20051;-37
2023/10/31 10:26:43;;;;;;;1.25;0.77;;;;;;;;;;5069485;28;20036;-36
2023/10/31 10:29:08;;;;;;;1.98;0.90;;;;;;;;;;5056451;28;20031;-37
2023/10/31 10:31:33;;;;;;;2.03;0.80;;;;;;;;;;5037096;28;20031;-36
2023/10/31 10:34:01;;;;;;;1.23;0.70;;;;;;;;;;5065220;28;20385;-37
2023/10/31 10:36:26;;;;;;;2.90;1.63;;;;;;;;;;5059525;28;20286;-36
2023/10/31 10:38:56;;;;;;;2.00;0.70;;;;;;;;;;5067565;28;20012;-37
2023/10/31 10:41:21;;;;;;;1.88;0.70;;;;;;;;;;5075690;28;20024;-37
2023/10/31 10:43:47;;;;;;;4.28;1.02;;;;;;;;;;5069073;28;20017;-37
2023/10/31 10:46:15;;;;;;;1.27;0.40;;;;;;;;;;5066536;28;20031;-37
2023/10/31 10:48:42;;;;;;;4.05;0.60;;;;;;;;;;5070243;28;20075;-36
2023/10/31 10:51:09;;;;;;;2.30;0.60;;;;;;;;;;5065291;28;20454;-37
2023/10/31 10:53:49;;;;;;;1.40;0.50;;;;;;;;;;5067180;28;20035;-36
2023/10/31 10:56:18;;;;;;;1.15;0.55;;;;;;;;;;5068246;28;20029;-37
2023/10/31 10:58:49;;;;;;;0.80;0.50;;;;;;;;;;5077270;28;20020;-37
2023/10/31 11:01:17;;;;;;;0.60;0.40;;;;;;;;;;5072141;28;20586;-37
2023/10/31 11:03:43;;;;;;;0.82;0.50;;;;;;;;;;5070734;28;20025;-36
2023/10/31 11:06:09;;;;;;;5.70;1.70;;;;;;;;;;5067889;28;20021;-37
2023/10/31 11:08:35;;;;;;;1.17;0.82;;;;;;;;;;5070412;28;20031;-37
2023/10/31 11:11:00;;;;;;;3.80;0.63;;;;;;;;;;5064045;28;20020;-37
2023/10/31 11:13:26;;;;;;;3.50;0.47;;;;;;;;;;5061242;28;20612;-37
2023/10/31 11:15:55;;;;;;;1.38;0.55;;;;;;;;;;5041821;28;20092;-36
2023/10/31 11:18:21;;;;;;;0.80;0.45;;;;;;;;;;5055421;28;20048;-37
2023/10/31 11:20:46;;;;;;;2.25;0.50;;;;;;;;;;5065058;28;20067;-36
2023/10/31 11:23:12;;;;;;;0.40;0.30;;;;;;;;;;5051133;28;24969;-37
2023/10/31 11:25:43;;;;;;;0.30;0.25;;;;;;;;;;5047321;28;20507;-37
2023/10/31 11:28:15;;;;;;;1.05;0.65;;;;;;;;;;5050174;28;20024;-36
2023/10/31 11:30:41;;;;;;;;;;;;;;;;;;5063013;28;20036;-36
2023/10/31 11:33:11;;;;;;;0.85;0.55;;;;;;;;;;5064200;28;19908;-37
2023/10/31 11:35:38;;;;;;;1.08;0.35;;;;;;;;;;5068933;28;20032;-36
2023/10/31 11:38:06;;;;;;;1.95;0.65;;;;;;;;;;5060896;28;20029;-37
2023/10/31 11:40:32;;;;;;;0.45;0.40;;;;;;;;;;5066332;28;20016;-37
2023/10/31 11:42:58;;;;;;;1.35;0.60;;;;;;;;;;5064677;28;20078;-37
2023/10/31 11:45:27;;;;;;;1.92;0.43;;;;;;;;;;5071761;28;20073;-37
2023/10/31 11:47:53;;;;;;;3.85;0.57;;;;;;;;;;5077222;28;20027;-37
2023/10/31 11:50:18;;;;;;;1.77;0.70;;;;;;;;;;5076154;28;20024;-37
2023/10/31 11:52:43;;;;;;;1.05;0.73;;;;;;;;;;5071332;28;20019;-37
2023/10/31 11:55:10;;;;;;;0.47;0.38;;;;;;;;;;5067008;28;20024;-37
2023/10/31 11:57:36;;;;;;;1.33;0.68;;;;;;;;;;5050425;28;20029;-36
2023/10/31 12:00:02;;;;;;;0.98;0.45;;;;;;;;;;5051288;28;20032;-36
2023/10/31 12:02:27;;;;;;;1.58;0.60;;;;;;;;;;5063272;28;20111;-37
2023/10/31 12:05:06;;;;;;;1.80;0.30;;;;;;;;;;5060445;28;20029;-37
2023/10/31 12:07:41;;;;;;;1.15;0.30;;;;;;;;;;5076295;22;20509;-37
2023/10/31 12:10:06;;;;;;;3.83;1.30;;;;;;;;;;5071623;28;20084;-39
2023/10/31 12:12:32;;;;;;;0.55;0.35;;;;;;;;;;5068120;28;20247;-37
2023/10/31 12:15:04;;;;;;;1.27;0.45;;;;;;;;;;5075112;28;20028;-38
2023/10/31 12:17:29;;;;;;;;;;;;;;;;;;5062571;28;20032;-39
2023/10/31 12:19:55;;;;;;;3.70;1.42;;;;;;;;;;5073474;28;19920;-37
2023/10/31 12:22:21;;;;;;;2.83;0.30;;;;;;;;;;5083725;28;20509;-38
2023/10/31 12:24:46;;;;;;;1.83;0.50;;;;;;;;;;5077773;28;20020;-38
2023/10/31 12:27:12;;;;;;;1.03;0.50;;;;;;;;;;5080644;28;20036;-37
2023/10/31 12:29:37;;;;;;;2.20;0.60;;;;;;;;;;5075851;28;20304;-37
2023/10/31 12:32:03;;;;;;;3.50;0.50;;;;;;;;;;5078379;28;20082;-39
2023/10/31 12:34:28;;;;;;;3.28;0.43;;;;;;;;;;5049199;28;20024;-37
2023/10/31 12:36:54;;;;;;;1.33;0.50;;;;;;;;;;5068318;28;20032;-39
2023/10/31 12:39:23;;;;;;;1.85;0.40;;;;;;;;;;5070390;28;20287;-40
2023/10/31 12:41:48;;;;;;;1.90;0.85;;;;;;;;;;5048703;28;20024;-37
2023/10/31 12:44:17;;;;;;;0.30;0.25;;;;;;;;;;5064164;28;20029;-37
2023/10/31 12:46:42;;;;;;;0.98;0.60;;;;;;;;;;5058460;28;20031;-38
2023/10/31 12:49:13;;;;;;;1.10;0.40;;;;;;;;;;5056382;28;20024;-37
2023/10/31 12:51:38;;;;;;;1.10;0.40;;;;;;;;;;5063880;28;20117;-38
2023/10/31 12:54:03;;;;;;;2.85;0.50;;;;;;;;;;5060389;28;20055;-39
2023/10/31 12:56:42;;;;;;;0.77;0.32;;;;;;;;;;5062383;28;20024;-38
2023/10/31 12:59:08;;;;;;;3.95;0.60;;;;;;;;;;5061592;28;20119;-38
2023/10/31 13:01:36;;;;;;;0.88;0.52;;;;;;;;;;5060857;28;24378;-38
2023/10/31 13:04:05;;;;;;;1.25;0.60;;;;;;;;;;5043128;28;20227;-37
2023/10/31 13:06:35;;;;;;;1.30;0.70;;;;;;;;;;5066391;28;20031;-38
2023/10/31 13:09:01;;;;;;;0.70;0.40;;;;;;;;;;5072907;28;20031;-38
2023/10/31 13:11:30;;;;;;;2.13;0.45;;;;;;;;;;5067985;28;20020;-37
2023/10/31 13:13:55;;;;;;;1.25;0.65;;;;;;;;;;5065786;28;20036;-37
2023/10/31 13:16:20;;;;;;;1.83;0.70;;;;;;;;;;5068582;28;20028;-38
2023/10/31 13:18:46;;;;;;;1.38;0.70;;;;;;;;;;5065238;28;20278;-38
2023/10/31 13:21:12;;;;;;;3.35;0.70;;;;;;;;;;5068971;28;20111;-37
2023/10/31 13:23:38;;;;;;;0.98;0.45;;;;;;;;;;5070204;28;20028;-37
2023/10/31 13:26:03;;;;;;;5.25;0.85;;;;;;;;;;5068658;28;20476;-38
2023/10/31 13:28:30;;;;;;;1.08;0.50;;;;;;;;;;5062977;28;20028;-38
2023/10/31 13:30:56;;;;;;;0.75;0.45;;;;;;;;;;5061494;28;20020;-37
2023/10/31 13:33:21;;;;;;;0.93;0.50;;;;;;;;;;5067536;28;20028;-37
2023/10/31 13:35:46;;;;;;;2.10;0.50;;;;;;;;;;5072982;28;20035;-37
2023/10/31 13:38:11;;;;;;;1.03;0.50;;;;;;;;;;5065530;28;20024;-37
2023/10/31 13:40:37;;;;;;;0.70;0.40;;;;;;;;;;5069851;28;20031;-37
2023/10/31 13:43:03;;;;;;;0.47;0.30;;;;;;;;;;5075448;28;20489;-37
2023/10/31 13:45:28;;;;;;;1.85;0.38;;;;;;;;;;5062304;28;20271;-38
2023/10/31 13:47:54;;;;;;;3.43;1.10;;;;;;;;;;5069347;28;23222;-38
2023/10/31 13:50:19;;;;;;;0.93;0.40;;;;;;;;;;5047639;28;20274;-37
2023/10/31 13:52:44;;;;;;;2.70;0.50;;;;;;;;;;5074548;28;20036;-38
2023/10/31 13:55:11;;;;;;;0.80;0.50;;;;;;;;;;5066655;28;20024;-37
2023/10/31 13:57:37;;;;;;;0.82;0.50;;;;;;;;;;5071372;28;20285;-38
2023/10/31 14:00:02;;;;;;;1.63;0.40;;;;;;;;;;5063439;28;20039;-37
2023/10/31 14:02:28;;;;;;;0.40;0.30;;;;;;;;;;5069875;28;20016;-38
2023/10/31 14:04:53;;;;;;;5.07;0.50;;;;;;;;;;5072802;28;20039;-38
2023/10/31 14:07:22;;;;;;;0.40;0.30;;;;;;;;;;5072976;28;20036;-38
2023/10/31 14:09:48;;;;;;;0.50;0.30;;;;;;;;;;5071154;28;20032;-40
2023/10/31 14:12:13;;;;;;;1.10;0.65;;;;;;;;;;5076297;28;20062;-37
2023/10/31 14:14:38;;;;;;;0.80;0.23;;;;;;;;;;5063743;28;20115;-38
2023/10/31 14:17:04;;;;;;;0.70;0.30;;;;;;;;;;5063618;28;20632;-38
2023/10/31 14:19:30;;;;;;;1.17;0.38;;;;;;;;;;5059648;28;20048;-37
2023/10/31 14:21:55;;;;;;;0.47;0.20;;;;;;;;;;5076639;28;20111;-38
2023/10/31 14:24:26;;;;;;;0.35;0.20;;;;;;;;;;5071928;28;20035;-38
2023/10/31 14:26:52;;;;;;;1.57;0.60;;;;;;;;;;5077073;28;20036;-38